Time;durP1;ratioP1;P1;durP2;ratioP2;P2;SDS_P1;SDS_P2;PMS_P1;PMS_P2;Temp;Humidity;BMP_temperature;BMP_pressure;BME280_temperature;BME280_humidity;BME280_pressure;Samples;Min_cycle;Max_cycle;Signal;HPM_P1;HPM_P2
2023/02/03 00:03:15;;;;;;;3.13;1.90;;;;;;;10.34;55.47;100024.19;7034148;28;20238;-79
2023/02/03 00:06:36;;;;;;;2.60;2.00;;;;;;;10.32;55.24;100004.63;7032943;28;20253;-79
2023/02/03 00:09:59;;;;;;;2.93;2.00;;;;;;;10.88;54.31;100021.41;7033560;28;20354;-81
2023/02/03 00:13:21;;;;;;;2.30;2.10;;;;;;;10.60;54.45;100022.03;7033440;28;20261;-80
2023/02/03 00:16:42;;;;;;;1.90;1.80;;;;;;;10.67;54.73;100018.47;7033258;28;20297;-79
2023/02/03 00:20:04;;;;;;;4.10;1.97;;;;;;;10.52;54.91;100016.69;7033310;28;20644;-80
2023/02/03 00:23:28;;;;;;;4.23;1.73;;;;;;;10.81;54.08;100036.59;7033543;28;20209;-80
2023/02/03 00:26:51;;;;;;;2.00;1.90;;;;;;;10.55;54.64;100033.34;7032885;28;20285;-80
2023/02/03 00:30:13;;;;;;;2.90;2.60;;;;;;;10.22;55.77;100028.25;7033325;28;20201;-81
2023/02/03 00:33:35;;;;;;;1.80;1.70;;;;;;;10.77;54.31;100029.88;7033370;28;20567;-80
2023/02/03 00:36:56;;;;;;;1.93;1.83;;;;;;;10.36;54.78;99985.25;7027369;28;20212;-80
2023/02/03 00:40:18;;;;;;;1.97;1.67;;;;;;;10.45;54.90;100023.81;7032592;28;20201;-80
2023/02/03 00:43:41;;;;;;;1.90;1.80;;;;;;;10.48;55.02;100031.53;7032552;28;20722;-80
2023/02/03 00:47:03;;;;;;;2.10;2.00;;;;;;;10.56;54.81;100056.59;7031178;28;20349;-80
2023/02/03 00:50:24;;;;;;;1.80;1.70;;;;;;;10.71;54.75;100057.56;7032936;28;20360;-80
2023/02/03 00:53:45;;;;;;;2.57;2.00;;;;;;;11.05;53.51;100062.59;7032652;28;20298;-80
2023/02/03 00:57:07;;;;;;;2.60;1.83;;;;;;;10.95;54.08;100060.13;7032037;28;20291;-80
2023/02/03 01:00:30;;;;;;;2.87;2.67;;;;;;;10.43;54.24;100005.09;7032050;28;20213;-80
2023/02/03 01:03:51;;;;;;;2.07;1.90;;;;;;;10.58;54.94;100041.06;7032577;28;20287;-80
2023/02/03 01:07:13;;;;;;;1.90;1.80;;;;;;;10.40;55.61;100045.03;7031335;28;20228;-80
2023/02/03 01:10:34;;;;;;;1.90;1.80;;;;;;;10.67;54.55;100063.47;7032335;28;20208;-80
2023/02/03 01:13:58;;;;;;;3.93;1.67;;;;;;;10.91;53.75;100037.22;7031707;28;20224;-80
2023/02/03 01:17:21;;;;;;;2.33;1.90;;;;;;;11.12;53.83;100036.56;7031657;28;20301;-80
2023/02/03 01:20:42;;;;;;;2.10;1.90;;;;;;;11.06;53.93;100011.16;7032413;28;20708;-80
2023/02/03 01:24:04;;;;;;;2.20;1.83;;;;;;;10.57;55.18;99993.56;7031984;28;20342;-80
2023/02/03 01:27:26;;;;;;;2.00;1.90;;;;;;;10.62;55.20;100011.94;7031528;28;20385;-79
2023/02/03 01:30:47;;;;;;;2.77;2.10;;;;;;;10.48;55.21;100000.03;7032212;28;20318;-80
2023/02/03 01:34:12;;;;;;;3.77;2.03;;;;;;;11.27;54.04;100018.59;7031548;28;20208;-80
2023/02/03 01:37:34;;;;;;;2.50;1.80;;;;;;;10.61;55.24;100010.22;7031888;28;20626;-79
2023/02/03 01:40:55;;;;;;;2.53;1.97;;;;;;;10.59;54.64;99967.28;7031646;28;20291;-80
2023/02/03 01:44:40;;;;;;;2.20;2.00;;;;;;;10.61;55.09;100010.22;7031417;28;20661;-80
2023/02/03 01:48:01;;;;;;;2.30;2.10;;;;;;;10.36;55.57;100006.81;7031016;28;20312;-80
2023/02/03 01:51:24;;;;;;;2.10;1.90;;;;;;;10.19;56.38;100001.63;7032417;28;20232;-80
2023/02/03 01:54:48;;;;;;;2.40;2.20;;;;;;;10.42;55.96;99998.03;7032782;28;20204;-80
2023/02/03 01:58:12;;;;;;;2.40;2.20;;;;;;;10.16;56.41;100016.28;7033106;28;20220;-80
2023/02/03 02:01:36;;;;;;;2.33;2.03;;;;;;;10.19;56.66;100020.50;7035439;28;20283;-80
2023/02/03 02:05:03;;;;;;;2.10;2.00;;;;;;;10.24;56.13;99980.41;7035305;28;20205;-80
2023/02/03 02:08:26;;;;;;;2.63;1.90;;;;;;;10.11;55.69;99964.78;7030785;28;20641;-80
2023/02/03 02:11:48;;;;;;;3.03;2.23;;;;;;;10.54;55.84;99991.22;7034620;28;20212;-80
2023/02/03 02:15:10;;;;;;;2.10;2.00;;;;;;;10.53;55.75;99978.75;7036282;28;20257;-80
2023/02/03 02:18:45;;;;;;;2.67;2.00;;;;;;;10.15;56.76;99960.72;7036504;28;20736;-80
2023/02/03 02:22:11;;;;;;;2.70;2.50;;;;;;;10.05;56.10;99891.91;7036249;28;20189;-80
2023/02/03 02:26:09;;;;;;;4.37;2.37;;;;;;;10.21;56.52;99932.25;7035857;28;20323;-81
2023/02/03 02:30:04;;;;;;;2.20;2.10;;;;;;;10.37;56.26;99926.75;7036773;28;20640;-80
2023/02/03 02:33:34;;;;;;;2.23;2.13;;;;;;;10.23;56.82;99941.84;7036470;28;20555;-80
2023/02/03 02:37:02;;;;;;;4.73;2.20;;;;;;;10.09;57.04;99939.84;7035846;28;20254;-80
2023/02/03 02:40:29;;;;;;;2.60;2.40;;;;;;;10.35;56.85;99918.88;7035896;28;20241;-80
2023/02/03 02:43:56;;;;;;;2.30;2.10;;;;;;;10.03;57.49;99907.38;7036170;28;20189;-80
2023/02/03 02:47:19;;;;;;;2.80;2.20;;;;;;;10.14;57.05;99888.13;7034213;28;20292;-80
2023/02/03 02:50:45;;;;;;;4.07;2.40;;;;;;;10.15;56.78;99914.09;7035888;28;20287;-80
2023/02/03 02:54:10;;;;;;;2.53;2.33;;;;;;;10.54;55.31;99928.34;7035457;28;20189;-80
2023/02/03 02:57:34;;;;;;;2.43;2.23;;;;;;;10.53;55.88;99957.19;7034915;28;20232;-81
2023/02/03 03:00:55;;;;;;;2.90;2.07;;;;;;;10.41;56.93;99937.03;7035548;28;20274;-80
2023/02/03 03:04:20;;;;;;;2.60;2.40;;;;;;;10.59;55.71;99956.47;7035464;28;20298;-80
2023/02/03 03:07:45;;;;;;;2.77;2.57;;;;;;;10.13;56.81;99900.78;7035817;28;20323;-80
2023/02/03 03:11:07;;;;;;;2.93;2.63;;;;;;;10.89;55.15;99923.22;7035229;28;20350;-80
2023/02/03 03:14:30;;;;;;;3.83;2.33;;;;;;;10.73;55.01;99890.13;7034782;28;20213;-80
2023/02/03 03:17:55;;;;;;;2.60;2.40;;;;;;;9.82;56.08;99802.91;7035594;28;20315;-81
2023/02/03 03:21:20;;;;;;;2.50;2.30;;;;;;;10.73;55.36;99917.94;7034874;28;20353;-80
2023/02/03 03:24:47;;;;;;;4.00;2.33;;;;;;;11.02;54.63;99914.50;7034495;28;20317;-80
2023/02/03 03:28:13;;;;;;;5.20;2.10;;;;;;;10.64;55.39;99919.00;7034984;28;20232;-80
2023/02/03 03:31:35;;;;;;;2.07;1.97;;;;;;;10.27;56.35;99907.28;7035281;28;20284;-80
2023/02/03 03:34:57;;;;;;;2.33;2.10;;;;;;;10.45;56.37;99942.91;7034389;28;20251;-80
2023/02/03 03:38:21;;;;;;;1.97;1.87;;;;;;;10.40;56.42;99934.50;7034700;28;20259;-80
2023/02/03 03:41:57;;;;;;;2.73;2.30;;;;;;;10.97;55.12;99955.53;7034828;28;20300;-80
2023/02/03 03:45:23;;;;;;;1.80;1.70;;;;;;;10.80;55.17;99940.47;7033703;28;20441;-80
2023/02/03 03:48:51;;;;;;;2.57;1.90;;;;;;;11.00;54.81;99967.84;7041247;28;20761;-81
2023/02/03 03:52:15;;;;;;;3.80;2.30;;;;;;;10.70;54.99;99964.13;7041639;28;20203;-81
2023/02/03 03:55:38;;;;;;;1.63;1.60;;;;;;;10.70;55.37;99977.63;7041686;28;20264;-82
2023/02/03 03:59:02;;;;;;;1.80;1.70;;;;;;;10.61;54.93;99942.78;7042014;28;20291;-81
2023/02/03 04:02:24;;;;;;;2.00;1.80;;;;;;;10.73;55.08;99989.91;7041979;28;20339;-81
2023/02/03 04:05:46;;;;;;;1.80;1.70;;;;;;;10.47;55.49;100001.03;7042463;28;20283;-80
2023/02/03 04:09:07;;;;;;;1.90;1.80;;;;;;;10.84;54.84;99973.34;7043418;28;20315;-81
2023/02/03 04:12:29;;;;;;;2.13;1.70;;;;;;;10.45;56.34;100002.22;7044098;28;20345;-81
2023/02/03 04:15:52;;;;;;;1.70;1.60;;;;;;;10.68;55.41;99995.03;7044511;28;20236;-81
2023/02/03 04:19:13;;;;;;;1.90;1.80;;;;;;;10.62;55.80;99990.34;7043956;28;20636;-80
2023/02/03 04:22:35;;;;;;;3.90;1.97;;;;;;;10.64;55.52;99969.44;7043865;28;20232;-80
2023/02/03 04:25:56;;;;;;;2.20;2.00;;;;;;;10.56;56.19;99959.53;7041964;28;20246;-81
2023/02/03 04:29:18;;;;;;;2.70;1.83;;;;;;;10.69;56.44;99994.84;7039645;28;20323;-81
2023/02/03 04:32:41;;;;;;;2.43;1.90;;;;;;;10.83;56.95;99999.50;7037409;28;20294;-80
2023/02/03 04:36:02;;;;;;;2.13;1.80;;;;;;;10.54;57.41;99988.53;7032193;28;20205;-80
2023/02/03 04:39:24;;;;;;;2.70;2.00;;;;;;;10.91;56.75;99974.28;7032077;28;20274;-80
2023/02/03 04:42:45;;;;;;;3.37;2.23;;;;;;;10.65;57.40;99963.00;7032498;28;20272;-80
2023/02/03 04:46:07;;;;;;;2.20;2.10;;;;;;;10.63;57.17;99976.66;7030783;28;20272;-79
2023/02/03 04:49:29;;;;;;;2.00;1.90;;;;;;;10.48;58.23;99982.97;7032356;28;20324;-80
2023/02/03 04:52:51;;;;;;;1.67;1.60;;;;;;;10.40;58.35;99981.16;7032459;28;20291;-81
2023/02/03 04:56:14;;;;;;;1.77;1.73;;;;;;;10.36;58.75;99993.34;7031891;28;20672;-79
2023/02/03 04:59:35;;;;;;;2.40;1.90;;;;;;;9.80;59.83;99974.59;7031863;28;20228;-80
2023/02/03 05:02:57;;;;;;;2.07;1.90;;;;;;;10.21;59.49;99959.19;7032127;28;20353;-80
2023/02/03 05:06:24;;;;;;;2.13;2.00;;;;;;;10.22;59.88;99961.69;7031002;28;20209;-79
2023/02/03 05:09:45;;;;;;;1.93;1.80;;;;;;;10.55;58.94;99963.22;7030936;28;20720;-81
2023/02/03 05:13:07;;;;;;;1.90;1.80;;;;;;;10.75;58.33;99958.25;7030671;28;20242;-79
2023/02/03 05:16:28;;;;;;;1.93;1.83;;;;;;;10.59;58.58;99963.72;7030715;28;20300;-80
2023/02/03 05:19:50;;;;;;;2.33;1.80;;;;;;;10.80;58.05;99983.66;7031334;28;20229;-80
2023/02/03 05:23:13;;;;;;;2.03;1.93;;;;;;;10.42;59.17;99981.84;7031125;28;20209;-79
2023/02/03 05:26:35;;;;;;;2.20;2.00;;;;;;;10.28;59.55;99965.56;7030004;28;20296;-80
2023/02/03 05:29:56;;;;;;;2.40;2.20;;;;;;;10.28;59.87;99965.56;7031057;28;20264;-81
2023/02/03 05:33:18;;;;;;;3.03;2.00;;;;;;;10.16;60.02;99973.19;7030766;28;20254;-80
2023/02/03 05:36:39;;;;;;;2.10;2.00;;;;;;;10.35;59.88;99966.53;7029967;28;20236;-79
2023/02/03 05:43:38;;;;;;;2.30;2.10;;;;;;;9.96;61.16;99996.13;7030363;28;20214;-81
2023/02/03 05:46:59;;;;;;;2.00;1.90;;;;;;;9.56;62.75;99993.50;7028998;28;20300;-80
2023/02/03 05:50:21;;;;;;;2.20;2.00;;;;;;;9.90;61.24;99987.88;7030947;28;20193;-81
2023/02/03 05:53:43;;;;;;;1.90;1.80;;;;;;;10.31;59.95;99987.63;7030725;28;20223;-79
2023/02/03 05:57:06;;;;;;;2.40;2.20;;;;;;;10.26;60.23;99970.28;7029531;28;20253;-80
2023/02/03 06:00:28;;;;;;;2.03;1.80;;;;;;;10.09;59.91;99955.22;7030352;28;20201;-80
2023/02/03 06:03:50;;;;;;;2.50;2.00;;;;;;;10.21;59.48;99949.25;7031004;28;20296;-80
2023/02/03 06:07:11;;;;;;;3.77;1.97;;;;;;;10.26;59.40;99952.25;7034055;28;20229;-80
2023/02/03 06:10:33;;;;;;;2.23;2.13;;;;;;;10.39;58.71;99939.03;7034327;28;20272;-80
2023/02/03 06:13:57;;;;;;;1.93;1.73;;;;;;;10.26;59.59;99948.72;7032906;28;20276;-80
2023/02/03 06:17:19;;;;;;;2.33;2.00;;;;;;;10.42;59.01;99944.09;7034448;28;20221;-80
2023/02/03 06:20:40;;;;;;;3.40;2.03;;;;;;;10.02;60.72;99954.16;7033737;28;20288;-81
2023/02/03 06:24:02;;;;;;;3.53;2.17;;;;;;;9.91;60.49;99947.31;7032358;28;20300;-80
2023/02/03 06:27:23;;;;;;;2.40;2.10;;;;;;;9.74;61.34;99951.06;7032354;28;20225;-80
2023/02/03 06:30:49;;;;;;;2.03;1.90;;;;;;;9.77;61.70;99956.09;7031926;28;20288;-80
2023/02/03 06:34:11;;;;;;;2.27;1.87;;;;;;;9.42;59.90;99845.28;7035370;28;20200;-80
2023/02/03 06:37:32;;;;;;;3.70;2.00;;;;;;;10.19;60.06;99947.72;7034246;28;20358;-81
2023/02/03 06:40:54;;;;;;;2.40;1.97;;;;;;;9.75;60.01;99924.97;7035700;28;20296;-80
2023/02/03 06:44:15;;;;;;;2.10;2.00;;;;;;;10.10;60.33;99957.69;7033725;28;20354;-80
2023/02/03 06:47:40;;;;;;;4.00;2.20;;;;;;;10.11;60.29;99945.09;7032211;28;20233;-80
2023/02/03 06:51:03;;;;;;;2.67;2.30;;;;;;;10.26;59.82;99946.00;7036891;28;20228;-80
2023/02/03 06:54:24;;;;;;;2.57;1.80;;;;;;;9.92;60.00;99924.72;7042279;28;20720;-80
2023/02/03 06:57:47;;;;;;;2.10;1.90;;;;;;;9.94;61.36;99951.50;7043696;28;20316;-81
2023/02/03 07:01:08;;;;;;;3.17;2.30;;;;;;;10.31;59.82;99939.09;7045665;28;20290;-80
2023/02/03 07:04:31;;;;;;;3.53;1.90;;;;;;;10.15;59.60;99922.19;7045613;28;20242;-80
2023/02/03 07:07:52;;;;;;;2.40;2.20;;;;;;;9.72;61.22;99930.69;7045416;28;20276;-80
2023/02/03 07:11:14;;;;;;;2.40;2.20;;;;;;;9.84;60.09;99878.13;7044593;28;20268;-80
2023/02/03 07:14:38;;;;;;;2.07;1.97;;;;;;;10.06;60.44;99926.75;7043039;28;20291;-81
2023/02/03 07:17:59;;;;;;;1.80;1.70;;;;;;;10.04;59.96;99920.69;7044939;28;20224;-80
2023/02/03 07:21:22;;;;;;;3.20;2.13;;;;;;;9.73;59.64;99883.88;7044077;28;20750;-81
2023/02/03 07:24:43;;;;;;;2.03;1.93;;;;;;;9.97;59.62;99922.38;7042488;28;20235;-80
2023/02/03 07:28:05;;;;;;;2.40;2.20;;;;;;;9.82;59.89;99928.66;7043556;28;20294;-80
2023/02/03 07:31:26;;;;;;;2.10;2.00;;;;;;;10.21;59.38;99921.47;7043682;28;20232;-80
2023/02/03 07:34:48;;;;;;;5.60;2.90;;;;;;;10.01;59.42;99931.78;7042917;28;20244;-80
2023/02/03 07:38:11;;;;;;;2.97;2.60;;;;;;;10.43;58.47;99931.44;7042639;28;20288;-80
2023/02/03 07:41:32;;;;;;;4.17;2.40;;;;;;;9.84;59.75;99934.69;7036139;28;20268;-80
2023/02/03 07:44:54;;;;;;;2.43;2.20;;;;;;;9.97;59.33;99949.31;7034637;28;20662;-79
2023/02/03 07:48:16;;;;;;;2.50;2.30;;;;;;;10.03;58.74;99932.47;7033751;28;20362;-80
2023/02/03 07:51:37;;;;;;;2.30;2.10;;;;;;;9.90;59.49;99987.88;7034844;28;20292;-79
2023/02/03 07:55:00;;;;;;;2.53;2.33;;;;;;;9.91;59.80;99978.78;7029888;28;20262;-79
2023/02/03 07:58:21;;;;;;;2.20;2.00;;;;;;;10.16;59.68;99975.06;7033966;28;20319;-79
2023/02/03 08:01:43;;;;;;;2.53;2.33;;;;;;;9.37;60.64;99966.94;7037231;28;20278;-79
2023/02/03 08:05:05;;;;;;;2.90;2.40;;;;;;;9.83;60.29;99993.13;7034271;28;20205;-80
2023/02/03 08:08:26;;;;;;;2.30;2.10;;;;;;;9.94;60.25;99991.91;7034337;28;20319;-80
2023/02/03 08:11:49;;;;;;;3.77;2.57;;;;;;;9.78;60.99;100010.78;7034401;28;20306;-79
2023/02/03 08:15:11;;;;;;;2.70;2.23;;;;;;;10.01;60.42;99992.91;7033472;28;20291;-79
2023/02/03 08:18:32;;;;;;;2.73;2.33;;;;;;;10.02;60.70;100006.22;7033973;28;20639;-80
2023/02/03 08:21:54;;;;;;;3.27;2.53;;;;;;;10.50;59.19;99973.72;7033726;28;20295;-79
2023/02/03 08:25:16;;;;;;;2.77;2.17;;;;;;;10.40;59.88;99996.50;7033149;28;20243;-79
2023/02/03 08:28:38;;;;;;;4.30;2.63;;;;;;;10.56;58.51;99974.88;7033541;28;20281;-79
2023/02/03 08:32:00;;;;;;;3.23;2.20;;;;;;;10.14;59.71;99990.53;7033462;28;20261;-79
2023/02/03 08:35:21;;;;;;;3.87;2.63;;;;;;;9.92;60.35;99986.69;7033127;28;20610;-79
2023/02/03 08:38:43;;;;;;;2.57;2.37;;;;;;;9.99;60.85;99976.91;7033870;28;20275;-79
2023/02/03 08:42:05;;;;;;;2.90;2.60;;;;;;;10.10;60.79;99998.13;7033081;28;20244;-79
2023/02/03 08:45:27;;;;;;;3.27;2.63;;;;;;;9.86;61.10;100008.94;7033338;28;20235;-81
2023/02/03 08:48:49;;;;;;;3.27;2.67;;;;;;;10.22;60.70;100014.78;7035161;28;20233;-79
2023/02/03 08:52:12;;;;;;;2.63;2.43;;;;;;;10.84;59.14;100017.34;7034869;28;20268;-79
2023/02/03 08:55:33;;;;;;;2.57;2.43;;;;;;;10.89;58.60;99993.38;7032836;28;20254;-80
2023/02/03 08:58:55;;;;;;;2.40;2.20;;;;;;;10.33;60.52;100003.63;7032580;28;20858;-80
2023/02/03 09:02:19;;;;;;;2.50;2.30;;;;;;;9.94;61.29;100000.84;7032673;28;20297;-80
2023/02/03 09:05:40;;;;;;;2.50;2.30;;;;;;;10.13;60.68;100005.03;7032260;28;20334;-80
2023/02/03 09:09:02;;;;;;;2.40;2.20;;;;;;;10.37;60.16;100000.41;7032137;28;20669;-80
2023/02/03 09:12:24;;;;;;;2.40;2.03;;;;;;;10.19;61.06;99988.16;7032440;28;20354;-80
2023/02/03 09:15:45;;;;;;;6.43;4.03;;;;;;;10.56;59.90;100004.53;7032805;28;20212;-80
2023/02/03 09:19:08;;;;;;;5.17;3.63;;;;;;;10.19;61.36;99980.94;7032426;28;20308;-79
2023/02/03 09:22:29;;;;;;;4.40;3.77;;;;;;;10.56;59.46;99961.38;7032902;28;20239;-80
2023/02/03 09:25:51;;;;;;;2.43;2.20;;;;;;;10.44;60.11;99978.94;7032666;28;20300;-80
2023/02/03 09:29:12;;;;;;;5.23;2.50;;;;;;;10.53;60.05;99981.47;7033102;28;20598;-80
2023/02/03 09:32:34;;;;;;;2.50;2.13;;;;;;;10.34;59.94;99937.91;7033026;28;20366;-80
2023/02/03 09:35:58;;;;;;;2.83;2.63;;;;;;;10.80;60.13;100010.63;7031968;28;20295;-80
2023/02/03 09:39:19;;;;;;;2.40;2.30;;;;;;;11.04;58.72;99986.19;7032549;28;20288;-79
2023/02/03 09:42:56;;;;;;;2.40;2.20;;;;;;;10.97;58.70;99996.03;7032126;28;20342;-80
2023/02/03 09:46:21;;;;;;;5.77;2.30;;;;;;;10.94;59.55;99987.44;7030881;28;20299;-80
2023/02/03 09:49:46;;;;;;;2.30;2.20;;;;;;;10.96;59.24;99986.25;7032001;28;20323;-80
2023/02/03 09:53:25;;;;;;;2.50;2.30;;;;;;;11.75;58.06;99983.09;7032268;28;20333;-80
2023/02/03 09:56:51;;;;;;;2.93;2.30;;;;;;;11.57;57.56;99942.88;7031812;28;20276;-80
2023/02/03 10:00:23;;;;;;;2.30;2.10;;;;;;;11.63;56.75;99984.56;7032559;28;20201;-79
2023/02/03 10:03:49;;;;;;;2.40;2.20;;;;;;;11.99;56.80;99963.94;7032221;28;20694;-80
2023/02/03 10:07:15;;;;;;;2.90;2.63;;;;;;;12.23;56.01;99967.16;7031551;28;20275;-80
2023/02/03 10:10:41;;;;;;;2.83;2.40;;;;;;;12.06;57.03;99952.19;7032526;28;20317;-80
2023/02/03 10:14:09;;;;;;;1.90;1.80;;;;;;;12.33;56.21;99975.00;7032939;28;20811;-79
2023/02/03 10:17:34;;;;;;;3.03;2.40;;;;;;;12.87;54.81;99963.59;7033231;28;20723;-80
2023/02/03 10:20:58;;;;;;;2.30;2.10;;;;;;;12.54;56.10;99988.59;7033145;28;20295;-80
2023/02/03 10:24:24;;;;;;;2.10;2.00;;;;;;;11.98;56.55;99987.41;7025765;28;20385;-78
2023/02/03 10:27:48;;;;;;;2.37;2.13;;;;;;;11.77;56.46;99991.84;7005054;28;20228;-80
2023/02/03 10:31:18;;;;;;;3.07;2.17;;;;;;;12.06;57.08;99987.34;7004631;28;20292;-80
2023/02/03 10:34:43;;;;;;;6.97;2.37;;;;;;;11.33;57.38;99947.69;7008922;28;20237;-80
2023/02/03 10:38:06;;;;;;;2.20;1.93;;;;;;;11.89;56.90;99993.94;7010158;28;20367;-80
2023/02/03 10:41:29;;;;;;;2.47;1.97;;;;;;;11.93;56.56;99991.69;7010169;28;20279;-80
2023/02/03 10:44:54;;;;;;;2.83;2.30;;;;;;;11.92;56.20;99988.13;7009134;28;20697;-80
2023/02/03 10:48:18;;;;;;;2.13;1.93;;;;;;;11.66;57.49;99949.06;7008275;28;20283;-80
2023/02/03 10:51:43;;;;;;;2.27;2.10;;;;;;;11.81;56.84;99964.25;7009515;28;20209;-81
2023/02/03 10:55:06;;;;;;;3.03;2.53;;;;;;;12.03;57.53;99946.31;7008716;28;20209;-80
2023/02/03 10:58:29;;;;;;;2.77;2.20;;;;;;;12.34;55.98;99955.06;7008655;28;20293;-81
2023/02/03 11:01:51;;;;;;;4.40;2.50;;;;;;;12.00;57.21;99968.28;7008494;28;20216;-81
2023/02/03 11:05:20;;;;;;;3.23;2.93;;;;;;;11.80;57.64;99937.44;7008284;28;20269;-81
2023/02/03 11:08:44;;;;;;;3.37;2.70;;;;;;;12.26;56.31;99911.88;7008176;28;20488;-81
2023/02/03 11:12:08;;;;;;;5.73;5.03;;;;;;;12.30;56.21;99948.34;7009867;28;20362;-81
2023/02/03 11:15:30;;;;;;;2.43;2.23;;;;;;;11.90;57.34;99952.38;7007816;28;20242;-81
2023/02/03 11:18:55;;;;;;;2.87;2.57;;;;;;;12.26;56.71;99919.97;7008400;28;20351;-81
2023/02/03 11:22:27;;;;;;;2.90;2.43;;;;;;;11.85;56.54;99899.88;7008387;28;20197;-81
2023/02/03 11:25:49;;;;;;;3.93;2.77;;;;;;;11.90;57.69;99935.28;7009918;28;20258;-80
2023/02/03 11:29:17;;;;;;;2.10;2.00;;;;;;;11.91;57.48;99910.78;7008353;28;20233;-81
2023/02/03 11:32:41;;;;;;;2.37;2.20;;;;;;;12.00;57.54;99925.06;7007483;28;20205;-81
2023/02/03 11:36:04;;;;;;;2.03;1.93;;;;;;;12.21;57.22;99925.97;7007793;28;20572;-81
2023/02/03 11:39:27;;;;;;;1.90;1.80;;;;;;;12.19;57.80;99929.88;7007538;28;20229;-82
2023/02/03 11:43:01;;;;;;;2.13;1.93;;;;;;;12.47;57.05;99925.47;7012441;28;20284;-81
2023/02/03 11:46:25;;;;;;;2.10;2.00;;;;;;;12.11;57.72;99920.00;7034163;28;20322;-80
2023/02/03 11:50:03;;;;;;;2.40;2.20;;;;;;;11.60;59.20;99917.38;7037204;28;20316;-81
2023/02/03 11:53:35;;;;;;;3.30;1.73;;;;;;;12.28;57.00;99893.63;7036148;28;20216;-81
2023/02/03 11:57:12;;;;;;;1.80;1.70;;;;;;;12.15;57.43;99901.56;7035804;28;20221;-82
2023/02/03 12:00:37;;;;;;;1.90;1.80;;;;;;;12.35;56.67;99902.63;7037965;28;20289;-81
2023/02/03 12:04:16;;;;;;;1.70;1.60;;;;;;;12.10;57.23;99882.34;7042903;28;20287;-81
2023/02/03 12:08:00;;;;;;;1.70;1.60;;;;;;;12.41;55.94;99885.66;7041646;28;20273;-81
2023/02/03 12:11:35;;;;;;;2.03;1.77;;;;;;;12.49;55.21;99880.97;7038526;28;20315;-82
2023/02/03 12:15:05;;;;;;;1.70;1.60;;;;;;;12.55;55.52;99891.00;7036384;28;20189;-82
2023/02/03 12:18:33;;;;;;;3.67;1.53;;;;;;;12.67;55.10;99880.50;7039016;28;20305;-82
2023/02/03 12:22:00;;;;;;;2.93;1.70;;;;;;;12.51;55.62;99880.78;7037246;28;20188;-82
2023/02/03 12:25:33;;;;;;;1.83;1.73;;;;;;;12.54;55.21;99896.59;7036948;28;20189;-82
2023/02/03 12:29:02;;;;;;;2.10;1.70;;;;;;;12.19;55.34;99894.72;7037516;28;20316;-81
2023/02/03 12:32:27;;;;;;;2.23;1.90;;;;;;;12.50;54.29;99896.16;7038815;28;20222;-82
2023/02/03 12:35:53;;;;;;;2.03;1.50;;;;;;;12.40;53.86;99882.09;7038290;28;20201;-81
2023/02/03 12:39:19;;;;;;;1.77;1.67;;;;;;;12.16;54.99;99870.78;7039600;28;20288;-81
2023/02/03 12:42:44;;;;;;;2.93;2.70;;;;;;;12.04;54.98;99831.75;7038640;28;20197;-82
2023/02/03 12:46:10;;;;;;;2.40;2.20;;;;;;;12.46;53.74;99850.75;7037409;28;20657;-81
2023/02/03 12:49:37;;;;;;;6.43;5.20;;;;;;;12.36;53.91;99832.13;7041589;28;20658;-82
2023/02/03 12:53:02;;;;;;;4.23;3.07;;;;;;;12.41;53.63;99818.03;7038526;28;20292;-81
2023/02/03 12:56:27;;;;;;;4.20;3.30;;;;;;;11.92;54.20;99838.69;7036634;28;20265;-81
2023/02/03 13:00:03;;;;;;;4.33;3.50;;;;;;;12.07;54.42;99798.94;7040085;28;20304;-81
2023/02/03 13:03:33;;;;;;;4.03;3.10;;;;;;;11.92;54.26;99757.59;7041809;28;20208;-82
2023/02/03 13:06:58;;;;;;;3.27;2.70;;;;;;;12.47;53.37;99803.72;7043783;28;20681;-81
2023/02/03 13:10:23;;;;;;;2.10;1.97;;;;;;;12.26;53.94;99768.56;7044854;28;20270;-81
2023/02/03 13:13:48;;;;;;;2.10;1.90;;;;;;;12.40;54.23;99819.06;7036064;28;20272;-82
2023/02/03 13:17:15;;;;;;;2.93;1.83;;;;;;;12.40;53.27;99808.25;7036173;28;20217;-82
2023/02/03 13:20:38;;;;;;;1.70;1.60;;;;;;;12.27;53.38;99784.59;7039507;28;20228;-82
2023/02/03 13:24:02;;;;;;;3.73;2.80;;;;;;;12.59;52.66;99794.91;7040158;28;20220;-81
2023/02/03 13:27:41;;;;;;;1.80;1.70;;;;;;;12.15;52.78;99796.94;7042172;28;20235;-81
2023/02/03 13:31:19;;;;;;;1.83;1.60;;;;;;;12.05;52.27;99755.84;7045080;28;20236;-82
2023/02/03 13:34:54;;;;;;;1.87;1.70;;;;;;;12.34;52.12;99779.25;7043195;28;20219;-82
2023/02/03 13:38:32;;;;;;;2.57;2.37;;;;;;;12.36;51.77;99759.13;7043402;28;20225;-81
2023/02/03 13:41:56;;;;;;;2.73;2.07;;;;;;;12.26;51.75;99784.78;7043618;28;20237;-81
2023/02/03 13:45:24;;;;;;;1.80;1.70;;;;;;;12.25;52.04;99772.28;7040315;28;20296;-82
2023/02/03 13:48:46;;;;;;;1.80;1.70;;;;;;;11.75;52.44;99735.34;7041195;28;20244;-81
2023/02/03 13:52:23;;;;;;;1.40;1.40;;;;;;;12.28;52.23;99766.50;7041092;28;20244;-81
2023/02/03 13:55:53;;;;;;;1.60;1.50;;;;;;;12.46;51.68;99761.50;7040074;28;20193;-81
2023/02/03 13:59:40;;;;;;;1.53;1.50;;;;;;;11.95;52.26;99727.47;7040896;28;20228;-82
2023/02/03 14:03:01;;;;;;;1.60;1.50;;;;;;;12.03;52.33;99787.66;7040236;28;20250;-81
2023/02/03 14:06:58;;;;;;;1.60;1.50;;;;;;;12.27;52.02;99781.88;7039399;28;20269;-82
2023/02/03 14:10:22;;;;;;;1.50;1.40;;;;;;;12.20;52.00;99775.59;7040474;28;20287;-81
2023/02/03 14:13:45;;;;;;;1.87;1.70;;;;;;;12.41;51.55;99788.28;7039816;28;20301;-82
2023/02/03 14:17:09;;;;;;;2.87;1.47;;;;;;;12.34;51.94;99779.25;7040629;28;20578;-81
2023/02/03 14:20:38;;;;;;;1.50;1.50;;;;;;;12.47;51.52;99788.34;7039198;28;20697;-82
2023/02/03 14:24:03;;;;;;;1.87;1.60;;;;;;;12.34;51.67;99776.56;7041222;28;20735;-82
2023/02/03 14:27:27;;;;;;;1.70;1.60;;;;;;;11.93;52.68;99781.72;7051834;28;20220;-81
2023/02/03 14:31:04;;;;;;;1.60;1.50;;;;;;;12.08;52.86;99782.53;7045282;28;20221;-82
2023/02/03 14:34:37;;;;;;;1.83;1.73;;;;;;;12.17;51.64;99757.03;7018381;28;20198;-81
2023/02/03 14:38:02;;;;;;;1.60;1.50;;;;;;;12.52;51.65;99775.06;7017158;28;20251;-81
2023/02/03 14:41:28;;;;;;;2.63;1.57;;;;;;;12.46;52.24;99780.44;7017212;28;20205;-81
2023/02/03 14:45:00;;;;;;;2.27;2.07;;;;;;;12.28;51.97;99769.22;7016608;28;20232;-81
2023/02/03 14:48:35;;;;;;;2.13;1.90;;;;;;;12.65;51.25;99780.63;7016421;28;20252;-81
2023/02/03 14:52:07;;;;;;;1.60;1.50;;;;;;;12.05;52.48;99787.47;7016487;28;20291;-81
2023/02/03 14:55:37;;;;;;;2.00;1.90;;;;;;;11.72;52.82;99721.38;7017116;28;20288;-81
2023/02/03 14:59:02;;;;;;;1.93;1.83;;;;;;;11.98;53.14;99786.56;7016820;28;20262;-81
2023/02/03 15:02:26;;;;;;;2.33;1.50;;;;;;;11.82;53.62;99786.78;7020613;28;20202;-81
2023/02/03 15:05:50;;;;;;;1.73;1.63;;;;;;;12.17;52.96;99786.75;7022597;28;20225;-82
2023/02/03 15:09:18;;;;;;;1.83;1.40;;;;;;;11.72;54.05;99778.97;7021825;28;20287;-81
2023/02/03 15:12:45;;;;;;;1.90;1.40;;;;;;;12.25;52.64;99758.78;7016174;28;20228;-82
2023/02/03 15:16:14;;;;;;;2.00;1.80;;;;;;;12.33;52.57;99764.91;7014713;28;20206;-82
2023/02/03 15:19:39;;;;;;;1.67;1.57;;;;;;;11.79;53.73;99773.63;7018425;28;20239;-82
2023/02/03 15:23:02;;;;;;;2.53;1.73;;;;;;;11.74;54.00;99781.50;7019255;28;20731;-82
2023/02/03 15:26:25;;;;;;;1.40;1.40;;;;;;;12.01;53.60;99783.47;7019174;28;20206;-82
2023/02/03 15:29:47;;;;;;;1.50;1.40;;;;;;;12.20;53.34;99783.69;7018834;28;20366;-82
2023/02/03 15:33:13;;;;;;;1.50;1.40;;;;;;;12.12;53.49;99800.03;7017894;28;20290;-82
2023/02/03 15:36:41;;;;;;;1.40;1.40;;;;;;;11.75;54.03;99769.66;7016923;28;20205;-82
2023/02/03 15:40:07;;;;;;;1.83;1.50;;;;;;;12.32;53.43;99805.66;7018381;28;20299;-82
2023/02/03 15:43:32;;;;;;;1.70;1.60;;;;;;;12.26;53.36;99823.47;7018619;28;20217;-82
2023/02/03 15:46:55;;;;;;;1.70;1.60;;;;;;;12.17;54.14;99824.63;7017109;28;20209;-82
2023/02/03 15:50:25;;;;;;;1.40;1.40;;;;;;;11.80;54.55;99834.78;7017449;28;20528;-82
2023/02/03 15:53:52;;;;;;;1.50;1.43;;;;;;;12.40;53.14;99813.66;7018954;28;20762;-82
2023/02/03 15:57:18;;;;;;;1.70;1.60;;;;;;;12.19;54.33;99833.41;7017483;28;20273;-82
2023/02/03 16:00:40;;;;;;;1.67;1.57;;;;;;;11.94;55.28;99850.13;7017211;28;20212;-82
2023/02/03 16:04:02;;;;;;;1.93;1.70;;;;;;;12.06;54.95;99852.16;7017002;28;20698;-82
2023/02/03 16:07:25;;;;;;;2.63;1.50;;;;;;;11.88;55.96;99845.47;7015008;28;20704;-80
2023/02/03 16:10:47;;;;;;;1.80;1.70;;;;;;;12.07;55.24;99842.19;7013266;28;20316;-81